Flight Track Log - Related Links

Times and Time Zones

All times are in EDT time to prevent confusion due to time zone crossing. See the DAL6221 flight status page for this flight to view local times or setup timezone preferences in your user account.

Time Position Orientation Groundspeed Altitude Reporting Facility
EDT Latitude Longitude Course Direction KTS MPH feet Rate Location/Type
Sun 02:05:15 PM 44.3394 -73.2789 192° South 301 346 9,200  Level Boston Center
Sun 02:06:15 PM 44.2539 -73.3097 194° South 312 359 10,800 2,050 Climbing Boston Center
Sun 02:07:15 PM 44.1558 -73.3428 194° South 342 394 13,300 2,500 Climbing Boston Center
Sun 02:08:00 PM 43.9159 -73.3603 196° South  Level FlightAware Approximate
Sun 02:08:15 PM 44.0553 -73.3761 193° South 365 420 15,800  Level Boston Center
Sun 02:09:00 PM 43.8240 -73.3953 195° South  Level FlightAware Approximate
Sun 02:09:15 PM 43.9531 -73.4119 194° South 375 432 17,900  Level Boston Center
Sun 02:10:15 PM 43.8506 -73.4447 193° South 380 437 19,700 1,950 Climbing Boston Center
Sun 02:11:15 PM 43.7608 -73.4750 194° South 374 430 21,800 1,900 Climbing Boston Center
Sun 02:12:15 PM 43.6436 -73.5103 192° South 379 436 23,500 1,650 Climbing Boston Center
Sun 02:13:15 PM 43.5392 -73.5456 194° South 385 443 25,100 1,250 Climbing Boston Center
Sun 02:14:15 PM 43.4306 -73.5836 194° South 396 456 26,000 450 Climbing Boston Center
Sun 02:15:15 PM 43.3217 -73.6158 192° South 396 456 26,000  Level Boston Center
Sun 02:16:15 PM 43.2150 -73.6536 194° South 396 456 26,000 -500 Level Boston Center
Sun 02:17:15 PM 43.1064 -73.6886 193° South 396 456 25,000 -1,250 Descending Boston Center
Sun 02:18:15 PM 43.0017 -73.7233 194° South 396 456 23,500 -1,450 Descending Boston Center
Sun 02:19:15 PM 42.8950 -73.7608 194° South 396 456 22,100 -750 Descending Boston Center
Sun 02:20:15 PM 42.7906 -73.7925 193° South 396 456 22,000 -350 Descending Boston Center
Sun 02:21:15 PM 42.6781 -73.7872 178° South 396 456 21,400 -900 Descending Boston Center
Sun 02:22:15 PM 42.5928 -73.7742 174° South 396 456 20,200 -1,450 Descending Boston Center
Sun 02:23:15 PM 42.4639 -73.7458 171° South 390 449 18,500 -1,100 Descending Boston Center
Sun 02:24:15 PM 42.3703 -73.7272 172° South 390 449 18,000 -250 Descending Boston Center
Sun 02:25:15 PM 42.2578 -73.7053 172° South 390 449 18,000  Level Boston Center
Sun 02:26:15 PM 42.1661 -73.7089 182° South 385 443 18,000  Level Boston Center
Sun 02:27:15 PM 42.0617 -73.7319 189° South 380 437 18,000  Level Boston Center
Sun 02:28:15 PM 41.9467 -73.7603 190° South 385 443 18,000 -300 Level Boston Center
Sun 02:29:15 PM 41.8589 -73.7808 190° South 377 434 17,400 -1,400 Descending Boston Center
Sun 02:30:15 PM 41.7522 -73.8092 191° South 365 420 15,200 -2,100 Descending Boston Center
Sun 02:31:15 PM 41.6667 -73.8269 189° South 350 403 13,200 -1,905 Descending Boston Center
Sun 02:32:43 PM 41.5167 -73.8667 191° South 359 413 10,500 -1,732 Descending New York TRACON
Sun 02:33:37 PM 41.4333 -73.8667 180° South 312 359 9,100 -1,316 Descending New York TRACON
Sun 02:34:37 PM 41.3667 -73.8167 151° Southeast 290 334 8,000 -550 Descending New York TRACON
Sun 02:35:37 PM 41.3000 -73.7500 143° Southeast 297 342 8,000  Level New York TRACON
Sun 02:36:31 PM 41.2333 -73.7000 151° Southeast 293 337 8,000 -200 Level New York TRACON
Sun 02:37:37 PM 41.1500 -73.6500 156° South 293 337 7,600 -762 Descending New York TRACON
Sun 02:38:37 PM 41.0833 -73.6167 159° South 277 319 6,400 -1,211 Descending New York TRACON
Sun 02:39:31 PM 41.0333 -73.6500 207° Southwest 282 325 5,300 -1,211 Descending New York TRACON
Sun 02:40:31 PM 40.9667 -73.7000 210° Southwest 267 307 4,100 -650 Descending New York TRACON
Sun 02:41:31 PM 40.9167 -73.7833 232° Southwest 265 305 4,000 -50 Descending New York TRACON
Sun 02:42:31 PM 40.8833 -73.8667 242° Southwest 268 308 4,000  Level New York TRACON
Sun 02:43:31 PM 40.8333 -73.9333 225° Southwest 269 310 4,000  Level New York TRACON
Sun 02:44:31 PM 40.7833 -74.0000 225° Southwest 248 285 4,000  Level New York TRACON
Sun 02:45:31 PM 40.7333 -74.0333 207° Southwest 190 219 4,000 -250 Level New York TRACON
Sun 02:46:31 PM 40.6833 -74.0833 217° Southwest 196 226 3,500 -500 Descending New York TRACON
Sun 02:47:31 PM 40.6333 -74.1167 207° Southwest 195 224 3,000 -250 Descending New York TRACON
Sun 02:48:31 PM 40.6000 -74.1000 159° South 202 232 3,000  Level New York TRACON
Sun 02:49:31 PM 40.6000 -74.0500 90° East 178 205 3,000  Level New York TRACON
Sun 02:50:31 PM 40.6333 -74.0000 49° Northeast 176 203 3,000 -333 Level New York TRACON
Sun 02:51:37 PM 40.6833 -73.9667 27° Northeast 177 204 2,300 -636 Descending New York TRACON

Login

Don't have an account? Register now (free) for customized features, flight alerts, and more!